C6552 KVQQ-KVQQ

Flight info

Callsign C6552
Flight time 1h 48m
Altitude 3500
Route VFR
Aircraft AS65/L-SDE2E3FGRY/LB

Departure

Time 2026-05-04 21:42
Airport Cecil Airport (KVQQ)

Arrival

Time 2026-05-04 23:30
Airport Cecil Airport (KVQQ)
Time Latitude Longitude Altitude Speed Heading
2026-05-04 20:43 30.22016 -81.88790 80 ft 0 kts 89°
2026-05-04 20:45 30.22017 -81.88786 80 ft 3 kts 88°
2026-05-04 20:45 30.21996 -81.88756 82 ft 8 kts 176°
2026-05-04 20:45 30.21919 -81.88701 251 ft 34 kts 98°
2026-05-04 20:46 30.21781 -81.88184 198 ft 106 kts 118°
2026-05-04 20:46 30.21124 -81.87498 258 ft 143 kts 152°
2026-05-04 20:46 30.20189 -81.87272 467 ft 127 kts 185°
2026-05-04 20:46 30.19428 -81.87672 491 ft 125 kts 217°
2026-05-04 20:47 30.18632 -81.88112 524 ft 123 kts 189°
2026-05-04 20:47 30.17865 -81.88005 523 ft 110 kts 155°
2026-05-04 20:47 30.17334 -81.87395 528 ft 108 kts 120°
2026-05-04 20:47 30.17256 -81.86534 542 ft 113 kts 83°
2026-05-04 20:48 30.17662 -81.85749 536 ft 118 kts 50°
2026-05-04 20:48 30.18425 -81.85353 543 ft 125 kts 14°
2026-05-04 20:48 30.19273 -81.85490 541 ft 124 kts 343°
2026-05-04 20:48 30.20013 -81.85956 540 ft 121 kts 329°
2026-05-04 20:49 30.20715 -81.86484 557 ft 113 kts 333°
2026-05-04 20:49 30.21386 -81.86659 548 ft 90 kts
2026-05-04 20:49 30.21941 -81.86902 543 ft 83 kts 323°
2026-05-04 20:49 30.22220 -81.87427 543 ft 72 kts 283°
2026-05-04 20:50 30.22213 -81.87952 540 ft 60 kts 254°
2026-05-04 20:50 30.22057 -81.88345 541 ft 48 kts 239°
2026-05-04 20:50 30.21878 -81.88618 541 ft 39 kts 225°
2026-05-04 20:50 30.21681 -81.88821 533 ft 46 kts 227°
2026-05-04 20:51 30.21281 -81.89068 523 ft 85 kts 190°
2026-05-04 20:51 30.20610 -81.88939 534 ft 108 kts 153°
2026-05-04 20:51 30.20140 -81.88352 552 ft 92 kts 117°
2026-05-04 20:51 30.20002 -81.87682 536 ft 86 kts 101°
2026-05-04 20:52 30.19945 -81.86976 544 ft 88 kts 99°
2026-05-04 20:52 30.19879 -81.86317 542 ft 81 kts 99°
2026-05-04 20:52 30.19789 -81.85654 540 ft 87 kts 106°
2026-05-04 20:52 30.19757 -81.84997 543 ft 75 kts 85°
2026-05-04 20:53 30.19953 -81.84465 537 ft 72 kts 62°
2026-05-04 20:53 30.20350 -81.84094 542 ft 74 kts 36°
2026-05-04 20:53 30.20859 -81.84009 533 ft 76 kts 357°
2026-05-04 20:53 30.21352 -81.84262 535 ft 81 kts 325°
2026-05-04 20:54 30.21640 -81.84758 548 ft 69 kts 288°
2026-05-04 20:54 30.21680 -81.85320 533 ft 75 kts 267°
2026-05-04 20:54 30.21675 -81.85926 526 ft 84 kts 266°
2026-05-04 20:54 30.21644 -81.86735 525 ft 117 kts 265°
2026-05-04 20:55 30.21603 -81.87756 548 ft 129 kts 268°
2026-05-04 20:55 30.21521 -81.88760 542 ft 124 kts 253°
2026-05-04 20:55 30.21055 -81.89559 533 ft 121 kts 220°
2026-05-04 20:55 30.20311 -81.89908 550 ft 111 kts 186°
2026-05-04 20:56 30.19647 -81.89738 547 ft 88 kts 148°
2026-05-04 20:56 30.19281 -81.89218 523 ft 89 kts 117°
2026-05-04 20:56 30.19196 -81.88504 534 ft 94 kts 92°
2026-05-04 20:56 30.19337 -81.87759 547 ft 91 kts 81°
2026-05-04 20:57 30.19476 -81.87046 527 ft 92 kts 84°
2026-05-04 20:57 30.19616 -81.86327 531 ft 89 kts 81°
2026-05-04 20:57 30.19748 -81.85655 533 ft 79 kts 82°
2026-05-04 20:57 30.19859 -81.85083 532 ft 71 kts 79°
2026-05-04 20:58 30.20111 -81.84569 523 ft 78 kts 55°
2026-05-04 20:58 30.20583 -81.84273 534 ft 79 kts 23°
2026-05-04 20:58 30.21147 -81.84342 530 ft 82 kts 343°
2026-05-04 20:58 30.21547 -81.84760 538 ft 75 kts 311°
2026-05-04 20:59 30.21668 -81.85316 530 ft 68 kts 270°
2026-05-04 20:59 30.21642 -81.85826 526 ft 63 kts 265°
2026-05-04 20:59 30.21629 -81.86409 540 ft 75 kts 276°
2026-05-04 20:59 30.21620 -81.87018 530 ft 79 kts 269°
2026-05-04 21:00 30.21610 -81.87680 532 ft 82 kts 268°
2026-05-04 21:00 30.21613 -81.88317 535 ft 76 kts 275°
2026-05-04 21:00 30.21475 -81.88886 527 ft 77 kts 231°
2026-05-04 21:00 30.21102 -81.89223 532 ft 60 kts 195°
2026-05-04 21:01 30.20746 -81.89254 536 ft 45 kts 168°
2026-05-04 21:01 30.20489 -81.89159 533 ft 33 kts 159°
2026-05-04 21:01 30.20308 -81.89036 523 ft 36 kts 161°
2026-05-04 21:01 30.20043 -81.88770 532 ft 59 kts 129°
2026-05-04 21:02 30.19921 -81.88327 529 ft 60 kts 102°
2026-05-04 21:02 30.20001 -81.87851 533 ft 58 kts 86°
2026-05-04 21:02 30.20130 -81.87437 528 ft 53 kts 78°
2026-05-04 21:02 30.20236 -81.87000 509 ft 69 kts 82°
2026-05-04 21:03 30.20357 -81.86312 508 ft 105 kts 79°
2026-05-04 21:03 30.20531 -81.85385 511 ft 130 kts 80°
2026-05-04 21:03 30.20734 -81.84304 523 ft 144 kts 82°
2026-05-04 21:03 30.20948 -81.83128 527 ft 154 kts 81°
2026-05-04 21:04 30.21162 -81.81909 509 ft 159 kts 81°
2026-05-04 21:04 30.21186 -81.80620 536 ft 159 kts 103°
2026-05-04 21:04 30.20717 -81.79440 448 ft 166 kts 124°
2026-05-04 21:04 30.20008 -81.78392 468 ft 165 kts 131°
2026-05-04 21:05 30.19279 -81.77418 519 ft 158 kts 131°
2026-05-04 21:05 30.18563 -81.76428 526 ft 161 kts 130°
2026-05-04 21:05 30.17871 -81.75418 531 ft 162 kts 130°
2026-05-04 21:05 30.17187 -81.74373 519 ft 165 kts 128°
2026-05-04 21:06 30.16507 -81.73307 542 ft 163 kts 128°
2026-05-04 21:06 30.15840 -81.72262 557 ft 156 kts 127°
2026-05-04 21:06 30.15207 -81.71277 535 ft 155 kts 126°
2026-05-04 21:06 30.14560 -81.70256 542 ft 156 kts 125°
2026-05-04 21:07 30.13904 -81.69213 548 ft 162 kts 126°
2026-05-04 21:07 30.13115 -81.68356 553 ft 155 kts 144°
2026-05-04 21:07 30.12170 -81.67689 531 ft 164 kts 151°
2026-05-04 21:07 30.11131 -81.67280 570 ft 146 kts 165°
2026-05-04 21:08 30.10224 -81.67111 559 ft 120 kts 167°
2026-05-04 21:08 30.09462 -81.66994 551 ft 102 kts 167°
2026-05-04 21:08 30.08811 -81.66926 543 ft 91 kts 180°
2026-05-04 21:08 30.08168 -81.67112 545 ft 98 kts 193°
2026-05-04 21:09 30.07513 -81.67366 410 ft 99 kts 197°
2026-05-04 21:09 30.06855 -81.67643 287 ft 103 kts 195°
2026-05-04 21:09 30.06188 -81.67917 242 ft 100 kts 193°
2026-05-04 21:09 30.05542 -81.68172 218 ft 96 kts 192°
2026-05-04 21:10 30.04880 -81.68248 215 ft 94 kts 178°
2026-05-04 21:10 30.04224 -81.68279 206 ft 97 kts 181°
2026-05-04 21:10 30.03555 -81.68262 205 ft 95 kts 165°
2026-05-04 21:10 30.03003 -81.67883 209 ft 90 kts 139°
2026-05-04 21:11 30.02582 -81.67461 213 ft 71 kts 135°
2026-05-04 21:11 30.02258 -81.67127 210 ft 55 kts 134°
2026-05-04 21:11 30.02008 -81.66876 205 ft 41 kts 134°
2026-05-04 21:11 30.01734 -81.66774 202 ft 47 kts 161°
2026-05-04 21:12 30.01389 -81.66890 202 ft 56 kts 206°
2026-05-04 21:12 30.01169 -81.67256 203 ft 57 kts 243°
2026-05-04 21:12 30.01175 -81.67727 203 ft 60 kts 287°
2026-05-04 21:12 30.01410 -81.68098 200 ft 57 kts 332°
2026-05-04 21:13 30.01750 -81.68243 201 ft 47 kts
2026-05-04 21:13 30.02036 -81.68173 176 ft 40 kts 35°
2026-05-04 21:13 30.02245 -81.67981 166 ft 36 kts 57°
2026-05-04 21:13 30.02365 -81.67727 161 ft 36 kts 73°
2026-05-04 21:14 30.02396 -81.67448 158 ft 35 kts 91°
2026-05-04 21:14 30.02340 -81.67187 158 ft 31 kts 108°
2026-05-04 21:14 30.02217 -81.66983 153 ft 32 kts 120°
2026-05-04 21:14 30.02023 -81.66812 155 ft 39 kts 136°
2026-05-04 21:15 30.01754 -81.66747 153 ft 43 kts 161°
2026-05-04 21:15 30.01441 -81.66847 153 ft 51 kts 197°
2026-05-04 21:15 30.01197 -81.67162 153 ft 58 kts 229°
2026-05-04 21:15 30.01147 -81.67649 155 ft 64 kts 281°
2026-05-04 21:16 30.01368 -81.68066 154 ft 59 kts 329°
2026-05-04 21:16 30.01707 -81.68236 155 ft 49 kts
2026-05-04 21:16 30.02119 -81.68133 147 ft 72 kts 38°
2026-05-04 21:16 30.02408 -81.67710 155 ft 67 kts 78°
2026-05-04 21:17 30.02378 -81.67216 153 ft 62 kts 112°
2026-05-04 21:17 30.02049 -81.66828 142 ft 82 kts 146°
2026-05-04 21:17 30.01473 -81.66796 154 ft 90 kts 193°
2026-05-04 21:17 30.01017 -81.67304 157 ft 96 kts 245°
2026-05-04 21:18 30.01030 -81.67986 161 ft 79 kts 300°
2026-05-04 21:18 30.01421 -81.68353 140 ft 80 kts 352°
2026-05-04 21:18 30.01969 -81.68291 158 ft 74 kts 34°
2026-05-04 21:18 30.02327 -81.67912 154 ft 68 kts 68°
2026-05-04 21:19 30.02411 -81.67388 155 ft 67 kts 102°
2026-05-04 21:19 30.02200 -81.66929 153 ft 66 kts 126°
2026-05-04 21:19 30.01899 -81.66517 155 ft 68 kts 129°
2026-05-04 21:19 30.01604 -81.66131 157 ft 61 kts 129°
2026-05-04 21:20 30.01329 -81.65763 154 ft 61 kts 128°
2026-05-04 21:20 30.01065 -81.65395 156 ft 58 kts 125°
2026-05-04 21:20 30.00810 -81.65034 155 ft 60 kts 123°
2026-05-04 21:20 30.00557 -81.64671 156 ft 58 kts 124°
2026-05-04 21:21 30.00300 -81.64295 158 ft 60 kts 125°
2026-05-04 21:21 30.00042 -81.63919 160 ft 57 kts 124°
2026-05-04 21:21 29.99799 -81.63569 158 ft 55 kts 123°
2026-05-04 21:21 29.99555 -81.63289 157 ft 50 kts 135°
2026-05-04 21:22 29.99188 -81.63199 159 ft 61 kts 176°
2026-05-04 21:22 29.98848 -81.63467 160 ft 61 kts 229°
2026-05-04 21:22 29.98802 -81.63945 156 ft 64 kts 286°
2026-05-04 21:22 29.99017 -81.64365 161 ft 55 kts 315°
2026-05-04 21:23 29.99271 -81.64677 156 ft 55 kts 326°
2026-05-04 21:23 29.99533 -81.64974 159 ft 50 kts 324°
2026-05-04 21:23 29.99779 -81.65256 157 ft 50 kts 325°
2026-05-04 21:23 30.00017 -81.65545 158 ft 49 kts 324°
2026-05-04 21:24 30.00294 -81.65744 159 ft 43 kts 354°
2026-05-04 21:24 30.00554 -81.65738 155 ft 34 kts 22°
2026-05-04 21:24 30.00738 -81.65602 155 ft 29 kts 49°
2026-05-04 21:24 30.00822 -81.65437 156 ft 21 kts 70°
2026-05-04 21:25 30.00847 -81.65267 157 ft 22 kts 80°
2026-05-04 21:25 30.00833 -81.65069 158 ft 26 kts 90°
2026-05-04 21:25 30.00769 -81.64897 158 ft 21 kts 103°
2026-05-04 21:25 30.00679 -81.64732 157 ft 27 kts 110°
2026-05-04 21:26 30.00566 -81.64557 157 ft 28 kts 116°
2026-05-04 21:26 30.00435 -81.64379 156 ft 31 kts 119°
2026-05-04 21:26 30.00287 -81.64181 161 ft 31 kts 120°
2026-05-04 21:26 30.00152 -81.64012 157 ft 27 kts 120°
2026-05-04 21:27 30.00017 -81.63828 156 ft 32 kts 121°
2026-05-04 21:27 29.99923 -81.63699 160 ft 29 kts 120°
2026-05-04 21:27 29.99795 -81.63526 157 ft 28 kts 120°
2026-05-04 21:27 29.99666 -81.63352 157 ft 28 kts 120°
2026-05-04 21:28 29.99527 -81.63196 157 ft 28 kts 121°
2026-05-04 21:28 29.99374 -81.63030 155 ft 35 kts 126°
2026-05-04 21:28 29.99122 -81.62943 159 ft 42 kts 161°
2026-05-04 21:28 29.98834 -81.63077 158 ft 50 kts 194°
2026-05-04 21:29 29.98638 -81.63441 158 ft 57 kts 246°
2026-05-04 21:29 29.98685 -81.63883 156 ft 57 kts 295°
2026-05-04 21:29 29.98923 -81.64210 159 ft 51 kts 328°
2026-05-04 21:29 29.99260 -81.64563 153 ft 80 kts 320°
2026-05-04 21:30 29.99633 -81.65039 159 ft 81 kts 316°
2026-05-04 21:30 29.99985 -81.65537 163 ft 74 kts 319°
2026-05-04 21:30 30.00372 -81.65770 159 ft 55 kts
2026-05-04 21:30 30.00729 -81.65608 154 ft 33 kts 51°
2026-05-04 21:31 30.00834 -81.65326 151 ft 15 kts 73°
2026-05-04 21:31 30.00827 -81.65243 151 ft 7 kts 70°
2026-05-04 21:31 30.00809 -81.65216 149 ft 3 kts 68°
2026-05-04 21:32 30.00788 -81.65227 146 ft 4 kts 68°
2026-05-04 21:32 30.00774 -81.65257 147 ft 3 kts 63°
2026-05-04 21:32 30.00801 -81.65185 162 ft 23 kts 75°
2026-05-04 21:32 30.00796 -81.64917 168 ft 38 kts 103°
2026-05-04 21:33 30.00662 -81.64658 164 ft 38 kts 118°
2026-05-04 21:33 30.00491 -81.64432 160 ft 37 kts 123°
2026-05-04 21:33 30.00322 -81.64230 156 ft 35 kts 123°
2026-05-04 21:33 30.00133 -81.64029 156 ft 38 kts 126°
2026-05-04 21:34 29.99923 -81.63830 154 ft 41 kts 132°
2026-05-04 21:34 29.99639 -81.63703 155 ft 48 kts 159°
2026-05-04 21:34 29.99296 -81.63844 151 ft 62 kts 207°
2026-05-04 21:34 29.98998 -81.64435 136 ft 110 kts 252°
2026-05-04 21:35 29.99073 -81.65473 228 ft 149 kts 289°
2026-05-04 21:35 29.99653 -81.66552 306 ft 164 kts 317°
2026-05-04 21:35 30.00494 -81.67383 333 ft 156 kts 332°
2026-05-04 21:35 30.01487 -81.67884 346 ft 157 kts 349°
2026-05-04 21:36 30.02534 -81.68112 358 ft 151 kts
2026-05-04 21:36 30.03605 -81.68209 352 ft 156 kts
2026-05-04 21:36 30.04676 -81.68123 355 ft 153 kts 10°
2026-05-04 21:36 30.05734 -81.67893 357 ft 154 kts 24°
2026-05-04 21:37 30.06734 -81.67530 358 ft 147 kts 26°
2026-05-04 21:37 30.07709 -81.67134 353 ft 150 kts 27°
2026-05-04 21:37 30.08703 -81.66724 345 ft 157 kts 21°
2026-05-04 21:37 30.09795 -81.66657 363 ft 155 kts
2026-05-04 21:38 30.10900 -81.66855 349 ft 167 kts 354°
2026-05-04 21:38 30.11947 -81.67267 360 ft 155 kts 340°
2026-05-04 21:38 30.12908 -81.67906 349 ft 166 kts 333°
2026-05-04 21:38 30.13876 -81.68551 351 ft 159 kts 336°
2026-05-04 21:39 30.14761 -81.69331 378 ft 162 kts 316°
2026-05-04 21:39 30.15347 -81.70449 399 ft 166 kts 298°
2026-05-04 21:39 30.15849 -81.71728 405 ft 182 kts 298°
2026-05-04 21:39 30.16427 -81.73027 436 ft 181 kts 305°
2026-05-04 21:40 30.17162 -81.74175 426 ft 177 kts 314°
2026-05-04 21:40 30.18001 -81.75240 441 ft 178 kts 319°
2026-05-04 21:40 30.18856 -81.76248 409 ft 178 kts 317°
2026-05-04 21:40 30.19753 -81.77296 368 ft 184 kts 320°
2026-05-04 21:41 30.20618 -81.78337 421 ft 177 kts 314°
2026-05-04 21:41 30.21330 -81.79359 457 ft 147 kts 319°
2026-05-04 21:41 30.21941 -81.80181 443 ft 125 kts 314°
2026-05-04 21:41 30.22219 -81.81072 422 ft 114 kts 275°
2026-05-04 21:42 30.22045 -81.81911 469 ft 106 kts 245°
2026-05-04 21:42 30.21767 -81.82663 796 ft 98 kts 249°
2026-05-04 21:42 30.21634 -81.83434 670 ft 97 kts 263°
2026-05-04 21:42 30.21593 -81.84235 542 ft 104 kts 268°
2026-05-04 21:43 30.21592 -81.85071 416 ft 103 kts 272°
2026-05-04 21:43 30.21600 -81.85887 287 ft 100 kts 268°
2026-05-04 21:43 30.21592 -81.86691 161 ft 100 kts 270°
2026-05-04 21:43 30.21567 -81.87505 316 ft 101 kts 269°
2026-05-04 21:44 30.21557 -81.88334 535 ft 109 kts 268°
2026-05-04 21:44 30.21563 -81.89214 782 ft 119 kts 270°
2026-05-04 21:44 30.21544 -81.90315 1030 ft 151 kts 266°
2026-05-04 21:44 30.21531 -81.91583 1080 ft 163 kts 268°
2026-05-04 21:45 30.21537 -81.92913 1070 ft 172 kts 269°
2026-05-04 21:45 30.21540 -81.94351 1056 ft 181 kts 268°
2026-05-04 21:45 30.21545 -81.95810 1074 ft 184 kts 273°
2026-05-04 21:45 30.21935 -81.97226 1067 ft 184 kts 303°
2026-05-04 21:46 30.22987 -81.97807 1010 ft 178 kts 18°
2026-05-04 21:46 30.23695 -81.96840 1089 ft 161 kts 76°
2026-05-04 21:46 30.23863 -81.95561 1093 ft 160 kts 91°
2026-05-04 21:46 30.23765 -81.94299 1086 ft 159 kts 103°
2026-05-04 21:47 30.23602 -81.93012 1084 ft 158 kts 102°
2026-05-04 21:47 30.23575 -81.91761 1072 ft 160 kts 94°
2026-05-04 21:47 30.23604 -81.90477 1074 ft 159 kts 92°
2026-05-04 21:47 30.23612 -81.89173 1078 ft 161 kts 95°
2026-05-04 21:48 30.23606 -81.87877 1070 ft 158 kts 95°
2026-05-04 21:48 30.23567 -81.86610 1080 ft 158 kts 96°
2026-05-04 21:48 30.23492 -81.85349 1055 ft 160 kts 96°
2026-05-04 21:48 30.23401 -81.84059 1067 ft 158 kts 99°
2026-05-04 21:49 30.23503 -81.82800 1066 ft 161 kts 78°
2026-05-04 21:49 30.23857 -81.81582 1063 ft 161 kts 73°
2026-05-04 21:49 30.24303 -81.80389 1081 ft 160 kts 70°
2026-05-04 21:49 30.24755 -81.79212 1059 ft 166 kts 72°
2026-05-04 21:50 30.24876 -81.77902 1092 ft 159 kts 99°
2026-05-04 21:50 30.24578 -81.76685 1073 ft 156 kts 114°
2026-05-04 21:50 30.24122 -81.75549 1064 ft 159 kts 118°
2026-05-04 21:50 30.23617 -81.74409 1077 ft 159 kts 119°
2026-05-04 21:51 30.23125 -81.73283 1070 ft 157 kts 118°
2026-05-04 21:51 30.22650 -81.72130 1063 ft 161 kts 117°
2026-05-04 21:51 30.22193 -81.70945 1061 ft 163 kts 116°
2026-05-04 21:51 30.21753 -81.69750 1081 ft 158 kts 116°
2026-05-04 21:52 30.21323 -81.68567 1062 ft 163 kts 114°
2026-05-04 21:52 30.20893 -81.67362 1072 ft 161 kts 114°
2026-05-04 21:52 30.20468 -81.66161 1073 ft 161 kts 113°
2026-05-04 21:52 30.20051 -81.64985 1050 ft 159 kts 113°
2026-05-04 21:53 30.19634 -81.63789 1073 ft 158 kts 113°
2026-05-04 21:53 30.19227 -81.62638 1075 ft 152 kts 114°
2026-05-04 21:53 30.18827 -81.61510 1066 ft 153 kts 113°
2026-05-04 21:53 30.18420 -81.60337 1013 ft 160 kts 114°
2026-05-04 21:54 30.18013 -81.59182 1075 ft 151 kts 114°
2026-05-04 21:54 30.17601 -81.58029 1013 ft 162 kts 114°
2026-05-04 21:54 30.17177 -81.56817 1071 ft 161 kts 114°
2026-05-04 21:54 30.16761 -81.55645 1082 ft 158 kts 115°
2026-05-04 21:55 30.16347 -81.54494 1065 ft 157 kts 115°
2026-05-04 21:55 30.15932 -81.53315 1084 ft 157 kts 115°
2026-05-04 21:55 30.15519 -81.52145 1072 ft 159 kts 115°
2026-05-04 21:55 30.15111 -81.51001 1081 ft 151 kts 115°
2026-05-04 21:56 30.14702 -81.49846 1079 ft 157 kts 114°
2026-05-04 21:56 30.14294 -81.48695 1089 ft 156 kts 114°
2026-05-04 21:56 30.13880 -81.47523 1086 ft 159 kts 114°
2026-05-04 21:56 30.13460 -81.46333 1089 ft 160 kts 115°
2026-05-04 21:57 30.13045 -81.45169 1087 ft 155 kts 116°
2026-05-04 21:57 30.12633 -81.44007 1088 ft 158 kts 116°
2026-05-04 21:57 30.12217 -81.42852 1096 ft 152 kts 116°
2026-05-04 21:57 30.11806 -81.41724 1086 ft 153 kts 116°
2026-05-04 21:58 30.11393 -81.40584 1091 ft 154 kts 116°
2026-05-04 21:58 30.10979 -81.39422 1091 ft 156 kts 115°
2026-05-04 21:58 30.10570 -81.38269 1079 ft 158 kts 113°
2026-05-04 21:58 30.10154 -81.37084 1084 ft 159 kts 114°
2026-05-04 21:59 30.09732 -81.35873 1069 ft 164 kts 113°
2026-05-04 21:59 30.09314 -81.34676 1099 ft 157 kts 114°
2026-05-04 21:59 30.08896 -81.33494 1093 ft 159 kts 116°
2026-05-04 21:59 30.08481 -81.32327 1099 ft 155 kts 116°
2026-05-04 22:00 30.08072 -81.31196 1085 ft 153 kts 115°
2026-05-04 22:00 30.07658 -81.30040 1072 ft 159 kts 114°
2026-05-04 22:00 30.07239 -81.28856 1099 ft 157 kts 114°
2026-05-04 22:00 30.06822 -81.27698 1081 ft 156 kts 114°
2026-05-04 22:01 30.06408 -81.26535 1099 ft 154 kts 115°
2026-05-04 22:01 30.06024 -81.25493 1115 ft 128 kts 117°
2026-05-04 22:01 30.05698 -81.24629 1104 ft 108 kts 117°
2026-05-04 22:01 30.05427 -81.23905 1091 ft 92 kts 116°
2026-05-04 22:02 30.05194 -81.23274 1086 ft 79 kts 116°
2026-05-04 22:02 30.04993 -81.22731 1084 ft 68 kts 114°
2026-05-04 22:02 30.04819 -81.22264 1078 ft 61 kts 113°
2026-05-04 22:02 30.04650 -81.21798 1079 ft 64 kts 112°
2026-05-04 22:03 30.04482 -81.21332 1080 ft 62 kts 113°
2026-05-04 22:03 30.04317 -81.20871 1081 ft 62 kts 113°
2026-05-04 22:03 30.04150 -81.20405 1079 ft 63 kts 113°
2026-05-04 22:03 30.03984 -81.19940 1077 ft 62 kts 114°
2026-05-04 22:04 30.03821 -81.19487 1077 ft 60 kts 114°
2026-05-04 22:04 30.03647 -81.19049 1076 ft 61 kts 122°
2026-05-04 22:04 30.03292 -81.18763 1079 ft 66 kts 154°
2026-05-04 22:04 30.02862 -81.18564 1075 ft 66 kts 139°
2026-05-04 22:05 30.02619 -81.18155 1083 ft 58 kts 110°
2026-05-04 22:05 30.02615 -81.17738 1082 ft 47 kts 86°
2026-05-04 22:05 30.02734 -81.17439 1079 ft 36 kts 76°
2026-05-04 22:05 30.02878 -81.17248 1076 ft 30 kts 79°
2026-05-04 22:06 30.03027 -81.17063 1076 ft 34 kts 77°
2026-05-04 22:06 30.03193 -81.16866 1075 ft 35 kts 72°
2026-05-04 22:06 30.03384 -81.16691 1077 ft 34 kts 63°
2026-05-04 22:06 30.03594 -81.16553 1077 ft 36 kts 57°
2026-05-04 22:07 30.03837 -81.16436 1076 ft 40 kts 52°
2026-05-04 22:07 30.04124 -81.16364 1077 ft 44 kts 37°
2026-05-04 22:07 30.04441 -81.16383 1076 ft 48 kts 20°
2026-05-04 22:07 30.04786 -81.16504 1078 ft 55 kts
2026-05-04 22:08 30.05104 -81.16776 1077 ft 59 kts 327°
2026-05-04 22:08 30.05269 -81.17216 1077 ft 61 kts 283°
2026-05-04 22:08 30.05237 -81.17685 1078 ft 56 kts 255°
2026-05-04 22:08 30.05137 -81.18099 1074 ft 52 kts 250°
2026-05-04 22:09 30.05031 -81.18508 1080 ft 55 kts 251°
2026-05-04 22:09 30.04948 -81.18938 1081 ft 54 kts 255°
2026-05-04 22:09 30.04852 -81.19357 1076 ft 55 kts 247°
2026-05-04 22:09 30.04633 -81.19705 1079 ft 51 kts 217°
2026-05-04 22:10 30.04359 -81.19879 1079 ft 41 kts 194°
2026-05-04 22:10 30.04095 -81.19929 1080 ft 36 kts 178°
2026-05-04 22:10 30.03853 -81.19953 1077 ft 35 kts 176°
2026-05-04 22:10 30.03612 -81.19965 1077 ft 35 kts 172°
2026-05-04 22:11 30.03342 -81.19964 1077 ft 46 kts 168°
2026-05-04 22:11 30.03033 -81.19961 1081 ft 42 kts 170°
2026-05-04 22:11 30.02744 -81.19965 1077 ft 41 kts 168°
2026-05-04 22:11 30.02452 -81.19964 1077 ft 44 kts 167°
2026-05-04 22:12 30.02153 -81.19955 1080 ft 41 kts 162°
2026-05-04 22:12 30.01902 -81.19856 1076 ft 37 kts 147°
2026-05-04 22:12 30.01703 -81.19666 1076 ft 39 kts 131°
2026-05-04 22:12 30.01574 -81.19391 1080 ft 39 kts 114°
2026-05-04 22:13 30.01507 -81.19104 1079 ft 36 kts 111°
2026-05-04 22:13 30.01447 -81.18821 1079 ft 36 kts 112°
2026-05-04 22:13 30.01394 -81.18530 1077 ft 37 kts 111°
2026-05-04 22:13 30.01350 -81.18237 1078 ft 36 kts 109°
2026-05-04 22:14 30.01316 -81.17956 1077 ft 35 kts 107°
2026-05-04 22:14 30.01289 -81.17669 1078 ft 37 kts 105°
2026-05-04 22:14 30.01270 -81.17380 1077 ft 35 kts 104°
2026-05-04 22:14 30.01254 -81.17101 1076 ft 35 kts 104°
2026-05-04 22:15 30.01268 -81.16804 1078 ft 38 kts 97°
2026-05-04 22:15 30.01346 -81.16497 1079 ft 41 kts 88°
2026-05-04 22:15 30.01500 -81.16209 1080 ft 44 kts 70°
2026-05-04 22:15 30.01738 -81.15973 1079 ft 47 kts 52°
2026-05-04 22:16 30.02066 -81.15832 1075 ft 54 kts 33°
2026-05-04 22:16 30.02453 -81.15819 1074 ft 57 kts 13°
2026-05-04 22:16 30.02842 -81.15882 1076 ft 55 kts 11°
2026-05-04 22:16 30.03215 -81.15950 1076 ft 54 kts 11°
2026-05-04 22:17 30.03466 -81.15984 1078 ft 56 kts 12°
2026-05-04 22:17 30.03855 -81.16022 1079 ft 54 kts 13°
2026-05-04 22:17 30.04222 -81.16040 1074 ft 55 kts 18°
2026-05-04 22:17 30.04607 -81.16041 1079 ft 52 kts 18°
2026-05-04 22:18 30.04945 -81.16031 1075 ft 47 kts 20°
2026-05-04 22:18 30.05288 -81.16068 1078 ft 54 kts
2026-05-04 22:18 30.05628 -81.16300 1076 ft 63 kts 331°
2026-05-04 22:18 30.05825 -81.16760 1076 ft 65 kts 289°
2026-05-04 22:19 30.05867 -81.17274 1076 ft 64 kts 277°
2026-05-04 22:19 30.05865 -81.17796 1076 ft 65 kts 273°
2026-05-04 22:19 30.05852 -81.18321 1075 ft 66 kts 271°
2026-05-04 22:19 30.05844 -81.18847 1078 ft 65 kts 269°
2026-05-04 22:20 30.05844 -81.19370 1075 ft 66 kts 266°
2026-05-04 22:20 30.05851 -81.19899 1077 ft 65 kts 270°
2026-05-04 22:20 30.05824 -81.20411 1078 ft 64 kts 251°
2026-05-04 22:20 30.05586 -81.20797 1078 ft 55 kts 210°
2026-05-04 22:21 30.05250 -81.20942 1080 ft 50 kts 179°
2026-05-04 22:21 30.04914 -81.20987 1080 ft 47 kts 176°
2026-05-04 22:21 30.04594 -81.21020 1083 ft 46 kts 176°
2026-05-04 22:21 30.04278 -81.21048 1082 ft 45 kts 174°
2026-05-04 22:22 30.03966 -81.21071 1079 ft 46 kts 173°
2026-05-04 22:22 30.03641 -81.21089 1083 ft 46 kts 171°
2026-05-04 22:22 30.03344 -81.21109 1080 ft 40 kts 171°
2026-05-04 22:22 30.03062 -81.21123 1077 ft 42 kts 171°
2026-05-04 22:23 30.02760 -81.21131 1081 ft 43 kts 168°
2026-05-04 22:23 30.02464 -81.21141 1079 ft 42 kts 171°
2026-05-04 22:23 30.02172 -81.21152 1077 ft 44 kts 169°
2026-05-04 22:23 30.01850 -81.21158 1079 ft 48 kts 169°
2026-05-04 22:24 30.01502 -81.21168 1080 ft 53 kts 168°
2026-05-04 22:24 30.01143 -81.21152 1081 ft 49 kts 157°
2026-05-04 22:24 30.00857 -81.20981 1080 ft 44 kts 134°
2026-05-04 22:24 30.00687 -81.20728 1078 ft 38 kts 119°
2026-05-04 22:25 30.00603 -81.20438 1078 ft 38 kts 108°
2026-05-04 22:25 30.00540 -81.20135 1080 ft 39 kts 106°
2026-05-04 22:25 30.00488 -81.19820 1077 ft 41 kts 103°
2026-05-04 22:25 30.00450 -81.19505 1078 ft 39 kts 102°
2026-05-04 22:26 30.00420 -81.19185 1078 ft 40 kts 101°
2026-05-04 22:26 30.00395 -81.18863 1077 ft 41 kts 99°
2026-05-04 22:26 30.00376 -81.18530 1078 ft 41 kts 99°
2026-05-04 22:26 30.00360 -81.18206 1076 ft 40 kts 100°
2026-05-04 22:27 30.00344 -81.17885 1077 ft 41 kts 98°
2026-05-04 22:27 30.00330 -81.17563 1078 ft 40 kts 99°
2026-05-04 22:27 30.00314 -81.17242 1077 ft 41 kts 101°
2026-05-04 22:27 30.00296 -81.16908 1077 ft 42 kts 104°
2026-05-04 22:28 30.00276 -81.16576 1077 ft 40 kts 104°
2026-05-04 22:28 30.00255 -81.16192 1077 ft 54 kts 99°
2026-05-04 22:28 30.00294 -81.15758 1077 ft 56 kts 83°
2026-05-04 22:28 30.00532 -81.15378 1075 ft 64 kts 56°
2026-05-04 22:29 30.00969 -81.15192 1079 ft 69 kts 19°
2026-05-04 22:29 30.01445 -81.15155 1076 ft 69 kts 19°
2026-05-04 22:29 30.01925 -81.15122 1075 ft 69 kts 18°
2026-05-04 22:29 30.02393 -81.15098 1075 ft 66 kts 15°
2026-05-04 22:30 30.02860 -81.15075 1076 ft 69 kts 16°
2026-05-04 22:30 30.03331 -81.15051 1075 ft 68 kts 18°
2026-05-04 22:30 30.03809 -81.15026 1079 ft 68 kts 17°
2026-05-04 22:30 30.04257 -81.15005 1076 ft 63 kts 17°
2026-05-04 22:31 30.04694 -81.14982 1078 ft 63 kts 16°
2026-05-04 22:31 30.05133 -81.14956 1072 ft 64 kts 19°
2026-05-04 22:31 30.05605 -81.14926 1079 ft 69 kts 17°
2026-05-04 22:31 30.06090 -81.14922 1075 ft 74 kts
2026-05-04 22:32 30.06551 -81.15218 1078 ft 79 kts 321°
2026-05-04 22:32 30.06791 -81.15787 1076 ft 81 kts 287°
2026-05-04 22:32 30.06868 -81.16427 1075 ft 80 kts 270°
2026-05-04 22:32 30.06875 -81.17072 1074 ft 81 kts 265°
2026-05-04 22:33 30.06861 -81.17721 1077 ft 81 kts 265°
2026-05-04 22:33 30.06851 -81.18380 1074 ft 83 kts 266°
2026-05-04 22:33 30.06849 -81.19034 1077 ft 80 kts 273°
2026-05-04 22:33 30.06859 -81.19663 1079 ft 78 kts 275°
2026-05-04 22:34 30.06878 -81.20292 1076 ft 80 kts 275°
2026-05-04 22:34 30.06900 -81.20929 1079 ft 78 kts 276°
2026-05-04 22:34 30.06793 -81.21533 1079 ft 76 kts 233°
2026-05-04 22:34 30.06439 -81.21921 1078 ft 67 kts 198°
2026-05-04 22:35 30.06000 -81.22027 1082 ft 62 kts 178°
2026-05-04 22:35 30.05570 -81.22080 1079 ft 64 kts 176°
2026-05-04 22:35 30.05133 -81.22127 1080 ft 63 kts 178°
2026-05-04 22:35 30.04704 -81.22172 1081 ft 61 kts 176°
2026-05-04 22:36 30.04283 -81.22212 1079 ft 61 kts 175°
2026-05-04 22:36 30.03854 -81.22245 1082 ft 61 kts 175°
2026-05-04 22:36 30.03454 -81.22277 1077 ft 56 kts 173°
2026-05-04 22:36 30.03052 -81.22298 1079 ft 60 kts 172°
2026-05-04 22:37 30.02644 -81.22317 1079 ft 57 kts 174°
2026-05-04 22:37 30.02225 -81.22335 1077 ft 63 kts 171°
2026-05-04 22:37 30.01797 -81.22354 1078 ft 62 kts 170°
2026-05-04 22:37 30.01310 -81.22366 1079 ft 72 kts 171°
2026-05-04 22:38 30.00831 -81.22394 1084 ft 66 kts 174°
2026-05-04 22:38 30.00374 -81.22416 1078 ft 64 kts 168°
2026-05-04 22:38 29.99985 -81.22228 1078 ft 60 kts 140°
2026-05-04 22:38 29.99751 -81.21828 1078 ft 62 kts 111°
2026-05-04 22:39 29.99689 -81.21331 1080 ft 62 kts 104°
2026-05-04 22:39 29.99647 -81.20836 1080 ft 61 kts 104°
2026-05-04 22:39 29.99610 -81.20347 1079 ft 60 kts 103°
2026-05-04 22:39 29.99580 -81.19860 1076 ft 62 kts 101°
2026-05-04 22:40 29.99552 -81.19351 1070 ft 70 kts 100°
2026-05-04 22:40 29.99527 -81.18784 1074 ft 73 kts 96°
2026-05-04 22:40 29.99505 -81.18190 1077 ft 75 kts 95°
2026-05-04 22:40 29.99483 -81.17594 1078 ft 74 kts 96°
2026-05-04 22:41 29.99459 -81.16994 1076 ft 76 kts 96°
2026-05-04 22:41 29.99435 -81.16386 1078 ft 75 kts 96°
2026-05-04 22:41 29.99410 -81.15784 1077 ft 76 kts 98°
2026-05-04 22:41 29.99384 -81.15174 1078 ft 75 kts 99°
2026-05-04 22:42 29.99479 -81.14581 1077 ft 79 kts 71°
2026-05-04 22:42 29.99912 -81.14131 1076 ft 91 kts 36°
2026-05-04 22:42 30.00518 -81.13937 1081 ft 91 kts 20°
2026-05-04 22:42 30.01159 -81.13873 1075 ft 93 kts 14°
2026-05-04 22:43 30.01796 -81.13864 1075 ft 92 kts 11°
2026-05-04 22:43 30.02443 -81.13867 1074 ft 93 kts 12°
2026-05-04 22:43 30.03093 -81.13866 1080 ft 91 kts 11°
2026-05-04 22:43 30.03708 -81.13858 1076 ft 88 kts 11°
2026-05-04 22:44 30.04320 -81.13839 1071 ft 90 kts 13°
2026-05-04 22:44 30.04967 -81.13812 1076 ft 94 kts 12°
2026-05-04 22:44 30.05619 -81.13781 1080 ft 92 kts 14°
2026-05-04 22:44 30.06243 -81.13748 1076 ft 90 kts 12°
2026-05-04 22:45 30.06885 -81.13778 1071 ft 97 kts 352°
2026-05-04 22:45 30.07644 -81.15025 1077 ft 101 kts 280°
2026-05-04 22:45 30.07725 -81.15840 1076 ft 103 kts 276°
2026-05-04 22:46 30.07763 -81.16657 1081 ft 102 kts 272°
2026-05-04 22:46 30.07790 -81.17486 1075 ft 103 kts 274°
2026-05-04 22:46 30.07813 -81.18305 1079 ft 103 kts 271°
2026-05-04 22:46 30.07838 -81.19133 1073 ft 105 kts 270°
2026-05-04 22:47 30.07863 -81.19981 1077 ft 106 kts 270°
2026-05-04 22:47 30.07893 -81.20835 1078 ft 107 kts 271°
2026-05-04 22:47 30.07924 -81.21684 1081 ft 103 kts 276°
2026-05-04 22:47 30.07780 -81.22483 1080 ft 103 kts 239°
2026-05-04 22:48 30.07270 -81.23009 1080 ft 95 kts 195°
2026-05-04 22:48 30.06672 -81.23124 1076 ft 86 kts 178°
2026-05-04 22:48 30.06075 -81.23188 1079 ft 86 kts 178°
2026-05-04 22:48 30.05470 -81.23247 1081 ft 87 kts 179°
2026-05-04 22:49 30.04873 -81.23301 1082 ft 85 kts 178°
2026-05-04 22:49 30.04280 -81.23351 1081 ft 87 kts 178°
2026-05-04 22:49 30.03699 -81.23396 1077 ft 82 kts 177°
2026-05-04 22:49 30.03115 -81.23431 1079 ft 84 kts 176°
2026-05-04 22:50 30.02530 -81.23463 1077 ft 87 kts 175°
2026-05-04 22:50 30.01925 -81.23491 1083 ft 87 kts 174°
2026-05-04 22:50 30.01325 -81.23523 1083 ft 83 kts 176°
2026-05-04 22:50 30.00759 -81.23559 1079 ft 80 kts 176°
2026-05-04 22:51 30.00195 -81.23591 1074 ft 84 kts 173°
2026-05-04 22:51 29.99598 -81.23612 1080 ft 85 kts 170°
2026-05-04 22:51 29.99085 -81.23387 1080 ft 76 kts 138°
2026-05-04 22:51 29.98815 -81.22883 1078 ft 77 kts 108°
2026-05-04 22:52 29.98749 -81.22270 1079 ft 77 kts 98°
2026-05-04 22:52 29.98699 -81.21667 1082 ft 75 kts 98°
2026-05-04 22:52 29.98658 -81.21071 1079 ft 75 kts 97°
2026-05-04 22:52 29.98622 -81.20480 1079 ft 73 kts 96°
2026-05-04 22:53 29.98591 -81.19883 1077 ft 76 kts 99°
2026-05-04 22:53 29.98562 -81.19275 1078 ft 77 kts 99°
2026-05-04 22:53 29.98535 -81.18667 1079 ft 75 kts 99°
2026-05-04 22:53 29.98508 -81.18063 1077 ft 76 kts 98°
2026-05-04 22:54 29.98482 -81.17455 1078 ft 75 kts 98°
2026-05-04 22:54 29.98457 -81.16865 1076 ft 73 kts 95°
2026-05-04 22:54 29.98433 -81.16270 1079 ft 75 kts 95°
2026-05-04 22:54 29.98408 -81.15681 1078 ft 73 kts 96°
2026-05-04 22:55 29.98382 -81.15093 1077 ft 74 kts 96°
2026-05-04 22:55 29.98359 -81.14475 1074 ft 81 kts 95°
2026-05-04 22:55 29.98368 -81.13836 1076 ft 84 kts 85°
2026-05-04 22:55 29.98697 -81.13255 1082 ft 90 kts 47°
2026-05-04 22:56 29.99305 -81.12981 1081 ft 97 kts 21°
2026-05-04 22:56 29.99966 -81.12872 1076 ft 97 kts 15°
2026-05-04 22:56 30.00643 -81.12828 1077 ft 96 kts 12°
2026-05-04 22:56 30.01312 -81.12810 1073 ft 98 kts
2026-05-04 22:57 30.01991 -81.12797 1076 ft 99 kts 10°
2026-05-04 22:57 30.02656 -81.12781 1078 ft 92 kts 10°
2026-05-04 22:57 30.03297 -81.12759 1072 ft 93 kts 12°
2026-05-04 22:57 30.03966 -81.12730 1075 ft 99 kts 12°
2026-05-04 22:58 30.04654 -81.12697 1079 ft 98 kts 11°
2026-05-04 22:58 30.05312 -81.12661 1075 ft 94 kts 12°
2026-05-04 22:58 30.05977 -81.12622 1075 ft 96 kts 11°
2026-05-04 22:58 30.06657 -81.12587 1076 ft 97 kts 13°
2026-05-04 22:59 30.07324 -81.12553 1075 ft 97 kts 11°
2026-05-04 22:59 30.07998 -81.12684 1076 ft 104 kts 338°
2026-05-04 22:59 30.08489 -81.13295 1077 ft 107 kts 295°
2026-05-04 22:59 30.08674 -81.14112 1079 ft 104 kts 278°
2026-05-04 23:00 30.08742 -81.14960 1073 ft 107 kts 273°
2026-05-04 23:00 30.08764 -81.15808 1073 ft 106 kts 269°
2026-05-04 23:00 30.08769 -81.16681 1074 ft 111 kts 270°
2026-05-04 23:00 30.08777 -81.17548 1078 ft 106 kts 269°
2026-05-04 23:01 30.08793 -81.18410 1077 ft 109 kts 272°
2026-05-04 23:01 30.08817 -81.19281 1082 ft 108 kts 271°
2026-05-04 23:01 30.08851 -81.20140 1079 ft 109 kts 274°
2026-05-04 23:01 30.08888 -81.21012 1080 ft 109 kts 272°
2026-05-04 23:02 30.08927 -81.21885 1074 ft 110 kts 271°
2026-05-04 23:02 30.08962 -81.22769 1078 ft 111 kts 270°
2026-05-04 23:02 30.08771 -81.23602 1076 ft 107 kts 234°
2026-05-04 23:02 30.08214 -81.24116 1079 ft 100 kts 193°
2026-05-04 23:03 30.07551 -81.24217 1086 ft 93 kts 178°
2026-05-04 23:03 30.06924 -81.24285 1075 ft 91 kts 178°
2026-05-04 23:03 30.06291 -81.24345 1079 ft 91 kts 176°
2026-05-04 23:03 30.05654 -81.24397 1080 ft 91 kts 178°
2026-05-04 23:04 30.05028 -81.24446 1079 ft 89 kts 177°
2026-05-04 23:04 30.04401 -81.24491 1080 ft 90 kts 177°
2026-05-04 23:04 30.03794 -81.24534 1074 ft 88 kts 175°
2026-05-04 23:04 30.03180 -81.24568 1078 ft 88 kts 176°
2026-05-04 23:05 30.02550 -81.24598 1081 ft 92 kts 175°
2026-05-04 23:05 30.01913 -81.24630 1080 ft 91 kts 174°
2026-05-04 23:05 30.01307 -81.24669 1081 ft 85 kts 175°
2026-05-04 23:05 30.00911 -81.24696 1079 ft 84 kts 176°
2026-05-04 23:06 30.00307 -81.24728 1077 ft 91 kts 173°
2026-05-04 23:06 29.99678 -81.24758 1080 ft 90 kts 175°
2026-05-04 23:06 29.99071 -81.24794 1082 ft 86 kts 176°
2026-05-04 23:06 29.98473 -81.24774 1077 ft 86 kts 159°
2026-05-04 23:07 29.97998 -81.24394 1078 ft 84 kts 125°
2026-05-04 23:07 29.97823 -81.23770 1082 ft 81 kts 100°
2026-05-04 23:07 29.97759 -81.23115 1079 ft 83 kts 99°
2026-05-04 23:07 29.97711 -81.22463 1085 ft 81 kts 99°
2026-05-04 23:08 29.97674 -81.21823 1078 ft 79 kts 99°
2026-05-04 23:08 29.97644 -81.21180 1078 ft 80 kts 99°
2026-05-04 23:08 29.97616 -81.20539 1078 ft 80 kts 96°
2026-05-04 23:08 29.97590 -81.19903 1077 ft 80 kts 96°
2026-05-04 23:09 29.97563 -81.19263 1084 ft 79 kts 96°
2026-05-04 23:09 29.97535 -81.18631 1077 ft 81 kts 96°
2026-05-04 23:09 29.97507 -81.17980 1080 ft 83 kts 99°
2026-05-04 23:09 29.97479 -81.17327 1079 ft 81 kts 99°
2026-05-04 23:10 29.97450 -81.16685 1073 ft 81 kts 98°
2026-05-04 23:10 29.97423 -81.16045 1078 ft 78 kts 99°
2026-05-04 23:10 29.97396 -81.15418 1076 ft 79 kts 96°
2026-05-04 23:10 29.97370 -81.14788 1075 ft 80 kts 95°
2026-05-04 23:11 29.97344 -81.14156 1077 ft 79 kts 95°
2026-05-04 23:11 29.97316 -81.13516 1076 ft 80 kts 96°
2026-05-04 23:11 29.97305 -81.12868 1077 ft 82 kts 87°
2026-05-04 23:11 29.97569 -81.12268 1077 ft 90 kts 55°
2026-05-04 23:12 29.98153 -81.11948 1079 ft 98 kts 24°
2026-05-04 23:12 29.98824 -81.11828 1082 ft 96 kts 15°
2026-05-04 23:12 29.99500 -81.11769 1077 ft 98 kts 13°
2026-05-04 23:12 30.00170 -81.11740 1076 ft 96 kts 12°
2026-05-04 23:13 30.00848 -81.11718 1074 ft 97 kts 12°
2026-05-04 23:13 30.01527 -81.11695 1079 ft 95 kts 12°
2026-05-04 23:13 30.02172 -81.11671 1075 ft 92 kts 11°
2026-05-04 23:13 30.02831 -81.11642 1061 ft 103 kts 11°
2026-05-04 23:14 30.03628 -81.11608 1082 ft 117 kts 11°
2026-05-04 23:14 30.04396 -81.11574 1077 ft 109 kts 11°
2026-05-04 23:14 30.05165 -81.11534 1072 ft 111 kts 10°
2026-05-04 23:14 30.05943 -81.11496 1079 ft 110 kts 11°
2026-05-04 23:15 30.06713 -81.11456 1080 ft 111 kts 11°
2026-05-04 23:15 30.07493 -81.11410 1075 ft 113 kts
2026-05-04 23:15 30.08284 -81.11376 1076 ft 115 kts
2026-05-04 23:15 30.09027 -81.11705 1078 ft 118 kts 328°
2026-05-04 23:16 30.09497 -81.12496 1071 ft 125 kts 292°
2026-05-04 23:16 30.09674 -81.13467 1072 ft 124 kts 278°
2026-05-04 23:16 30.09733 -81.14463 1080 ft 121 kts 270°
2026-05-04 23:16 30.09749 -81.15420 1070 ft 120 kts 269°
2026-05-04 23:17 30.09752 -81.16385 1083 ft 119 kts 269°
2026-05-04 23:17 30.09763 -81.17356 1075 ft 124 kts 271°
2026-05-04 23:17 30.09784 -81.18334 1077 ft 121 kts 271°
2026-05-04 23:17 30.09808 -81.19371 1050 ft 143 kts 270°
2026-05-04 23:18 30.09836 -81.20608 1058 ft 163 kts 272°
2026-05-04 23:18 30.09867 -81.21967 1072 ft 174 kts 271°
2026-05-04 23:18 30.09898 -81.23401 1074 ft 182 kts 272°
2026-05-04 23:18 30.09934 -81.24856 1070 ft 183 kts 272°
2026-05-04 23:19 30.09982 -81.26327 1073 ft 184 kts 272°
2026-05-04 23:19 30.10014 -81.27782 1080 ft 184 kts 273°
2026-05-04 23:19 30.10037 -81.29274 1084 ft 184 kts 271°
2026-05-04 23:19 30.10077 -81.30739 1077 ft 186 kts 271°
2026-05-04 23:20 30.10138 -81.32237 1075 ft 191 kts 272°
2026-05-04 23:20 30.10203 -81.33768 1085 ft 189 kts 273°
2026-05-04 23:20 30.10268 -81.35264 1082 ft 185 kts 273°
2026-05-04 23:20 30.10325 -81.36767 1087 ft 187 kts 273°
2026-05-04 23:21 30.10405 -81.38238 1079 ft 183 kts 275°
2026-05-04 23:21 30.10616 -81.39685 1076 ft 181 kts 282°
2026-05-04 23:21 30.10858 -81.41110 1077 ft 181 kts 283°
2026-05-04 23:21 30.11130 -81.42546 1080 ft 184 kts 284°
2026-05-04 23:22 30.11476 -81.43976 1078 ft 185 kts 285°
2026-05-04 23:22 30.11847 -81.45402 1072 ft 187 kts 286°
2026-05-04 23:22 30.12228 -81.46846 1073 ft 187 kts 287°
2026-05-04 23:22 30.12593 -81.48290 1071 ft 188 kts 286°
2026-05-04 23:23 30.12965 -81.49746 1077 ft 188 kts 287°
2026-05-04 23:23 30.13335 -81.51183 1064 ft 188 kts 287°
2026-05-04 23:23 30.13699 -81.52623 1070 ft 185 kts 287°
2026-05-04 23:23 30.14058 -81.54057 1058 ft 190 kts 287°
2026-05-04 23:24 30.14415 -81.55512 1068 ft 187 kts 286°
2026-05-04 23:24 30.14767 -81.56970 1064 ft 187 kts 287°
2026-05-04 23:24 30.15105 -81.58404 1058 ft 186 kts 287°
2026-05-04 23:24 30.15443 -81.59842 1062 ft 185 kts 286°
2026-05-04 23:25 30.15795 -81.61260 1063 ft 181 kts 287°
2026-05-04 23:25 30.16154 -81.62671 1054 ft 186 kts 287°
2026-05-04 23:25 30.16507 -81.64109 1066 ft 185 kts 287°
2026-05-04 23:25 30.16842 -81.65537 1065 ft 181 kts 287°
2026-05-04 23:26 30.17171 -81.66919 1066 ft 178 kts 286°
2026-05-04 23:26 30.17513 -81.68301 1060 ft 179 kts 287°
2026-05-04 23:26 30.17851 -81.69689 1061 ft 180 kts 287°
2026-05-04 23:26 30.18168 -81.71104 1060 ft 184 kts 287°
2026-05-04 23:27 30.18480 -81.72532 1063 ft 183 kts 286°
2026-05-04 23:27 30.18812 -81.73971 1062 ft 186 kts 286°
2026-05-04 23:27 30.19162 -81.75411 999 ft 184 kts 288°
2026-05-04 23:27 30.19526 -81.76819 726 ft 183 kts 290°
2026-05-04 23:28 30.19910 -81.78217 614 ft 179 kts 290°
2026-05-04 23:28 30.20290 -81.79506 576 ft 160 kts 292°
2026-05-04 23:28 30.20666 -81.80671 507 ft 156 kts 294°
2026-05-04 23:28 30.21054 -81.81844 492 ft 157 kts 294°
2026-05-04 23:29 30.21424 -81.82936 568 ft 129 kts 294°
2026-05-04 23:29 30.21619 -81.83872 463 ft 115 kts 273°
2026-05-04 23:29 30.21703 -81.84813 288 ft 128 kts 278°
2026-05-04 23:29 30.21773 -81.85946 234 ft 147 kts 271°
2026-05-04 23:30 30.21769 -81.87026 230 ft 118 kts 271°
2026-05-04 23:30 30.21768 -81.87832 140 ft 78 kts 271°
2026-05-04 23:30 30.21769 -81.88229 89 ft 24 kts 270°
2026-05-04 23:30 30.21763 -81.88353 121 ft 26 kts 270°
2026-05-04 23:31 30.21797 -81.88539 104 ft 16 kts 330°
2026-05-04 23:31 30.21851 -81.88550 83 ft 4 kts 359°
2026-05-04 23:31 30.21913 -81.88556 170 ft 24 kts
2026-05-04 23:31 30.22020 -81.88645 109 ft 12 kts 258°
2026-05-04 23:32 30.22023 -81.88674 85 ft 1 kts 266°
2026-05-04 23:32 30.22023 -81.88692 81 ft 2 kts 265°
2026-05-04 23:32 30.22018 -81.88700 80 ft 0 kts 266°